Arnaudville, Louisiana
Current Conditions -  °F | °C
As of 3:53 AM on Monday 26 Jan 2015 (Local Time) from KLFT Reporting Station
Clear Clear  
Wind Chill:   Ceiling: Unl
Heat Index:   Visibility: 10mi
Dew Point:   Wind: 10mph
Humidity: 52%   Direction: 340°NNW
Pressure: 30.08"   Gusts: NA
Location:  30.4°N, 91.93°W
Report Text: KLFT 260953Z 34009KT 10SM CLR 09/00 A3008 RMK AO2 SLP187 T00940000
Loading
Personal Weather Stations






























Interactive Weather Map New forecast layout! Learn more

10-Day Weather Forecast

Advertisements
Track Severe Weather on mobile